createdAt,value
2022-09-14T00:00:11.513Z,99103.28
2022-09-14T00:02:38.200Z,99105.25
2022-09-14T00:05:05.149Z,99103.72
2022-09-14T00:07:31.651Z,99103.06
2022-09-14T00:09:58.499Z,99109.53
2022-09-14T00:12:25.160Z,99111.66
2022-09-14T00:14:51.694Z,99112.81
2022-09-14T00:17:18.875Z,99104.28
2022-09-14T00:19:45.593Z,99103.63
2022-09-14T00:22:12.126Z,99097.75
2022-09-14T00:24:38.626Z,99096.38
2022-09-14T00:27:05.206Z,99100.22
2022-09-14T00:29:32.042Z,99100.34
2022-09-14T00:31:58.803Z,99099.69
2022-09-14T00:34:25.683Z,99101.81
2022-09-14T00:36:52.647Z,99095.13
2022-09-14T00:39:23.611Z,99084.94
2022-09-14T00:41:51.379Z,99088.75
2022-09-14T00:44:17.802Z,99080.06
2022-09-14T00:46:46.929Z,99083.19
2022-09-14T00:49:18.535Z,99084.34
2022-09-14T00:51:59.169Z,99081.09
2022-09-14T00:54:26.541Z,99080.81
2022-09-14T00:56:53.650Z,99081.09
2022-09-14T00:59:24.143Z,99077.75
2022-09-14T01:01:50.993Z,99070.78
2022-09-14T01:04:17.551Z,99069.06
2022-09-14T01:07:00.342Z,99068.69
2022-09-14T01:09:50.604Z,99056.25
2022-09-14T01:12:34.872Z,99056.38
2022-09-14T01:15:17.842Z,99057.69
2022-09-14T01:17:50.168Z,99054.34
2022-09-14T01:20:32.736Z,99055.63
2022-09-14T01:22:59.151Z,99058.31
2022-09-14T01:25:39.449Z,99061.56
2022-09-14T01:28:15.902Z,99058.38
2022-09-14T01:30:43.617Z,99045.22
2022-09-14T01:33:24.456Z,99035.19
2022-09-14T01:35:55.191Z,99037.13
2022-09-14T01:38:31.411Z,99043.75
2022-09-14T01:41:01.754Z,99041.09
2022-09-14T01:43:36.718Z,99038.91
2022-09-14T01:46:09.533Z,99042.53
2022-09-14T01:48:46.335Z,99038.34
2022-09-14T01:51:19.221Z,99029.69
2022-09-14T01:53:50.258Z,99026.31
2022-09-14T01:56:25.645Z,99019.63
2022-09-14T01:59:01.743Z,99029.59
2022-09-14T02:01:36.968Z,99032.25
2022-09-14T02:04:08.753Z,99030.88
2022-09-14T02:06:47.868Z,99034.97
2022-09-14T02:09:19.851Z,99038.47
2022-09-14T02:11:46.914Z,99040.44
2022-09-14T02:14:13.787Z,99035.44
2022-09-14T02:16:43.586Z,99028.41
2022-09-14T02:19:10.571Z,99022.44
2022-09-14T02:21:38.457Z,99034.88
2022-09-14T02:24:05.571Z,99020.91
2022-09-14T02:26:32.514Z,99022.72
2022-09-14T02:28:59.324Z,99019.22
2022-09-14T02:31:25.797Z,99025.38
2022-09-14T02:34:11.181Z,99020.34
2022-09-14T02:37:00.694Z,99025.38
2022-09-14T02:39:35.359Z,99024.53
2022-09-14T02:42:20.396Z,99028.75
2022-09-14T02:45:01.540Z,99014.75
2022-09-14T02:47:55.298Z,99013.88
2022-09-14T02:50:47.573Z,99005.25
2022-09-14T02:53:21.276Z,98995.13
2022-09-14T02:55:53.889Z,98985.47
2022-09-14T02:58:20.438Z,98989.66
2022-09-14T03:00:49.264Z,98987.84
2022-09-14T03:03:18.748Z,98982.25
2022-09-14T03:05:45.357Z,98975.09
2022-09-14T03:08:12.427Z,98970.47
2022-09-14T03:10:43.162Z,98975.59
2022-09-14T03:13:09.837Z,98976.31
2022-09-14T03:15:36.505Z,98984.97
2022-09-14T03:18:03.047Z,98982.16
2022-09-14T03:20:32.346Z,98977.69
2022-09-14T03:22:59.680Z,98977.38
2022-09-14T03:25:27.497Z,98978.91
2022-09-14T03:27:57.775Z,98974.41
2022-09-14T03:30:24.936Z,98975.91
2022-09-14T03:32:51.743Z,98968.78
2022-09-14T03:35:18.864Z,98963.47
2022-09-14T03:37:46.749Z,98958.00
2022-09-14T03:40:20.813Z,98964.97
2022-09-14T03:42:50.045Z,98963.16
2022-09-14T03:45:18.118Z,98955.19
2022-09-14T03:47:44.810Z,98963.16
2022-09-14T03:50:13.049Z,98965.81
2022-09-14T03:52:39.998Z,98960.50
2022-09-14T03:55:09.317Z,98957.16
2022-09-14T03:57:36.214Z,98957.16
2022-09-14T04:00:04.509Z,98945.84
2022-09-14T04:02:31.089Z,98949.63
2022-09-14T04:04:57.671Z,98948.78
2022-09-14T04:07:24.175Z,98946.44
2022-09-14T04:09:50.698Z,98938.78
2022-09-14T04:12:17.175Z,98947.91
2022-09-14T04:14:43.657Z,98948.03
2022-09-14T04:17:10.224Z,98937.69
2022-09-14T04:19:40.699Z,98942.50
2022-09-14T04:22:07.608Z,98939.13
2022-09-14T04:24:34.196Z,98925.16
2022-09-14T04:27:00.712Z,98928.97
2022-09-14T04:29:27.293Z,98933.72
2022-09-14T04:31:53.793Z,98930.25
2022-09-14T04:34:20.335Z,98931.41
2022-09-14T04:36:46.836Z,98938.66
2022-09-14T04:39:16.791Z,98932.81
2022-09-14T04:41:43.660Z,98934.78
2022-09-14T04:44:10.776Z,98933.13
2022-09-14T04:46:43.609Z,98938.53
2022-09-14T04:49:13.078Z,98945.72
2022-09-14T04:51:39.709Z,98944.00
2022-09-14T04:54:07.552Z,98938.84
2022-09-14T04:56:36.931Z,98936.34
2022-09-14T04:59:04.776Z,98931.03
2022-09-14T05:01:43.575Z,98928.66
2022-09-14T05:04:11.753Z,98924.72
2022-09-14T05:06:40.255Z,98919.41
2022-09-14T05:09:10.754Z,98914.91
2022-09-14T05:11:37.668Z,98914.75
2022-09-14T05:14:04.440Z,98915.63
2022-09-14T05:16:36.283Z,98917.28
2022-09-14T05:19:06.156Z,98918.13
2022-09-14T05:21:34.995Z,98922.47
2022-09-14T05:24:08.184Z,98923.44
2022-09-14T05:26:34.763Z,98917.16
2022-09-14T05:29:03.035Z,98918.81
2022-09-14T05:31:31.269Z,98918.81
2022-09-14T05:33:58.586Z,98918.81
2022-09-14T05:36:25.990Z,98923.00
2022-09-14T05:38:52.723Z,98918.53
2022-09-14T05:41:19.393Z,98916.72
2022-09-14T05:43:46.194Z,98906.63
2022-09-14T05:46:14.855Z,98912.59
2022-09-14T05:48:42.070Z,98913.16
2022-09-14T05:51:15.914Z,98915.50
2022-09-14T05:53:43.577Z,98914.19
2022-09-14T05:56:12.689Z,98913.09
2022-09-14T05:58:40.478Z,98906.44
2022-09-14T06:01:12.127Z,98907.81
2022-09-14T06:03:39.105Z,98908.22
2022-09-14T06:06:07.623Z,98905.94
2022-09-14T06:08:34.677Z,98905.31
2022-09-14T06:11:09.951Z,98908.66
2022-09-14T06:13:37.340Z,98905.38
2022-09-14T06:16:08.710Z,98914.88
2022-09-14T06:18:37.089Z,98906.59
2022-09-14T06:21:04.578Z,98910.75
2022-09-14T06:23:31.908Z,98910.47
2022-09-14T06:26:03.455Z,98904.13
2022-09-14T06:28:31.234Z,98905.50
2022-09-14T06:30:58.223Z,98892.19
2022-09-14T06:33:26.078Z,98900.03
2022-09-14T06:36:12.331Z,98895.84
2022-09-14T06:38:40.423Z,98894.41
2022-09-14T06:41:09.328Z,98895.91
2022-09-14T06:43:41.359Z,98909.88
2022-09-14T06:46:19.556Z,98903.56
2022-09-14T06:48:52.294Z,98911.09
2022-09-14T06:51:23.756Z,98904.47
2022-09-14T06:53:51.610Z,98898.97
2022-09-14T06:56:18.797Z,98911.97
2022-09-14T06:58:45.345Z,98906.34
2022-09-14T07:01:16.849Z,98910.53
2022-09-14T07:03:44.168Z,98919.06
2022-09-14T07:06:14.325Z,98925.75
2022-09-14T07:08:40.924Z,98921.59
2022-09-14T07:11:09.675Z,98920.13
2022-09-14T07:13:36.295Z,98912.50
2022-09-14T07:16:03.629Z,98900.53
2022-09-14T07:18:34.213Z,98902.72
2022-09-14T07:21:11.508Z,98906.59
2022-09-14T07:23:40.075Z,98911.13
2022-09-14T07:26:09.674Z,98919.31
2022-09-14T07:28:37.351Z,98920.34
2022-09-14T07:31:05.486Z,98908.84
2022-09-14T07:33:32.697Z,98908.88
2022-09-14T07:36:07.200Z,98909.38
2022-09-14T07:38:51.238Z,98902.25
2022-09-14T07:41:20.622Z,98898.09
2022-09-14T07:43:56.715Z,98897.91
2022-09-14T07:46:24.202Z,98901.63
2022-09-14T07:48:59.297Z,98909.31
2022-09-14T07:51:26.934Z,98911.16
2022-09-14T07:53:54.219Z,98904.50
2022-09-14T07:56:21.886Z,98904.00
2022-09-14T07:58:53.987Z,98900.00
2022-09-14T08:01:22.014Z,98907.50
2022-09-14T08:03:49.428Z,98913.31
2022-09-14T08:06:19.193Z,98905.00
2022-09-14T08:08:48.097Z,98917.84
2022-09-14T08:11:15.862Z,98912.16
2022-09-14T08:13:45.251Z,98910.84
2022-09-14T08:16:13.057Z,98916.53
2022-09-14T08:18:39.923Z,98909.66
2022-09-14T08:21:12.560Z,98910.16
2022-09-14T08:23:40.419Z,98909.81
2022-09-14T08:26:09.941Z,98899.13
2022-09-14T08:28:37.045Z,98904.16
2022-09-14T08:31:09.766Z,98904.78
2022-09-14T08:33:41.030Z,98903.56
2022-09-14T08:36:09.648Z,98906.91
2022-09-14T08:38:36.563Z,98901.34
2022-09-14T08:41:18.253Z,98906.16
2022-09-14T08:43:44.843Z,98904.31
2022-09-14T08:46:21.888Z,98904.78
2022-09-14T08:48:49.267Z,98896.22
2022-09-14T08:51:17.789Z,98884.53
2022-09-14T08:53:45.557Z,98880.84
2022-09-14T08:56:29.622Z,98879.53
2022-09-14T08:59:26.787Z,98875.84
2022-09-14T09:02:19.189Z,98872.16
2022-09-14T09:05:27.654Z,98874.81
2022-09-14T09:08:06.802Z,98883.34
2022-09-14T09:13:04.803Z,98883.19
2022-09-14T09:15:40.309Z,98879.84
2022-09-14T09:18:11.936Z,98882.34
2022-09-14T09:20:51.948Z,98882.69
2022-09-14T09:23:21.008Z,98887.50
2022-09-14T09:25:47.533Z,98882.16
2022-09-14T09:28:16.508Z,98875.16
2022-09-14T09:30:45.070Z,98874.16
2022-09-14T09:33:21.145Z,98879.84
2022-09-14T09:35:47.740Z,98890.38
2022-09-14T09:38:20.058Z,98887.22
2022-09-14T09:40:51.444Z,98884.53
2022-09-14T09:43:33.544Z,98886.38
2022-09-14T09:46:08.032Z,98879.38
2022-09-14T09:48:44.188Z,98876.84
2022-09-14T09:51:20.914Z,98871.50
2022-09-14T09:54:23.544Z,98868.16
2022-09-14T09:56:52.933Z,98857.97
2022-09-14T09:59:38.012Z,98862.00
2022-09-14T10:02:26.979Z,98863.84
2022-09-14T10:04:59.633Z,98871.34
2022-09-14T10:07:27.114Z,98869.31
2022-09-14T10:10:08.271Z,98870.16
2022-09-14T10:12:36.508Z,98872.47
2022-09-14T10:15:05.647Z,98879.31
2022-09-14T10:17:32.270Z,98875.47
2022-09-14T10:19:59.123Z,98880.25
2022-09-14T10:22:35.744Z,98869.22
2022-09-14T10:25:14.442Z,98870.09
2022-09-14T10:27:44.405Z,98866.69
2022-09-14T10:30:17.489Z,98865.88
2022-09-14T10:32:57.316Z,98864.69
2022-09-14T10:35:35.874Z,98858.50
2022-09-14T10:38:25.069Z,98859.53
2022-09-14T10:41:22.615Z,98858.50
2022-09-14T10:44:12.816Z,98855.66
2022-09-14T10:47:19.675Z,98857.66
2022-09-14T10:50:02.793Z,98861.66
2022-09-14T10:52:43.073Z,98857.97
2022-09-14T10:55:33.765Z,98862.31
2022-09-14T10:58:07.064Z,98866.31
2022-09-14T11:00:51.511Z,98855.59
2022-09-14T11:03:24.727Z,98862.09
2022-09-14T11:06:25.014Z,98860.56
2022-09-14T11:09:06.611Z,98860.72
2022-09-14T11:11:54.566Z,98864.50
2022-09-14T11:14:42.068Z,98857.78
2022-09-14T11:17:08.485Z,98858.75
2022-09-14T11:19:49.383Z,98865.56
2022-09-14T11:22:22.946Z,98864.38
2022-09-14T11:25:18.836Z,98854.34
2022-09-14T11:28:01.114Z,98854.44
2022-09-14T11:30:42.342Z,98857.22
2022-09-14T11:33:20.561Z,98852.78
2022-09-14T11:35:58.148Z,98855.78
2022-09-14T11:38:36.201Z,98844.69
2022-09-14T11:41:27.149Z,98850.53
2022-09-14T11:44:34.233Z,98839.28
2022-09-14T11:47:20.811Z,98834.19
2022-09-14T11:50:05.955Z,98844.81
2022-09-14T11:52:33.692Z,98837.28
2022-09-14T11:55:03.043Z,98835.22
2022-09-14T11:57:32.112Z,98838.34
2022-09-14T12:00:30.895Z,98838.16
2022-09-14T12:03:19.895Z,98832.28
2022-09-14T12:05:48.577Z,98829.00
2022-09-14T12:08:24.150Z,98830.88
2022-09-14T12:11:04.902Z,98841.41
2022-09-14T12:13:31.820Z,98832.44
2022-09-14T12:16:07.041Z,98828.09
2022-09-14T12:18:37.358Z,98832.09
2022-09-14T12:21:17.251Z,98827.34
2022-09-14T12:23:46.513Z,98823.66
2022-09-14T12:26:15.759Z,98832.34
2022-09-14T12:28:50.395Z,98832.34
2022-09-14T12:31:44.346Z,98827.34
2022-09-14T12:34:27.128Z,98817.91
2022-09-14T12:36:53.685Z,98826.41
2022-09-14T12:39:28.823Z,98836.50
2022-09-14T12:41:55.260Z,98835.28
2022-09-14T12:44:42.545Z,98835.03
2022-09-14T12:47:38.817Z,98823.09
2022-09-14T12:50:20.409Z,98818.00
2022-09-14T12:53:08.527Z,98816.59
2022-09-14T12:55:40.857Z,98810.50
2022-09-14T12:58:20.910Z,98814.66
2022-09-14T13:00:56.265Z,98807.25
2022-09-14T13:03:41.016Z,98803.53
2022-09-14T13:06:12.705Z,98809.56
2022-09-14T13:08:43.409Z,98808.72
2022-09-14T13:11:10.109Z,98802.91
2022-09-14T13:13:37.111Z,98807.59
2022-09-14T13:16:06.843Z,98799.31
2022-09-14T13:18:38.290Z,98798.19
2022-09-14T13:21:21.300Z,98794.63
2022-09-14T13:23:48.221Z,98790.75
2022-09-14T13:26:17.605Z,98789.47
2022-09-14T13:28:47.658Z,98783.44
2022-09-14T13:31:18.964Z,98788.16
2022-09-14T13:33:52.042Z,98778.28
2022-09-14T13:36:21.867Z,98774.59
2022-09-14T13:38:49.274Z,98770.31
2022-09-14T13:41:18.609Z,98770.69
2022-09-14T13:43:47.452Z,98767.56
2022-09-14T13:46:18.361Z,98767.75
2022-09-14T13:48:46.999Z,98762.56
2022-09-14T13:51:14.491Z,98753.69
2022-09-14T13:53:46.741Z,98753.69
2022-09-14T13:56:19.353Z,98759.06
2022-09-14T13:58:47.582Z,98745.28
2022-09-14T14:01:25.165Z,98751.66
2022-09-14T14:03:51.896Z,98738.34
2022-09-14T14:06:23.789Z,98735.25
2022-09-14T14:09:06.921Z,98734.06
2022-09-14T14:11:35.426Z,98733.94
2022-09-14T14:14:17.241Z,98729.03
2022-09-14T14:17:11.877Z,98732.81
2022-09-14T14:19:40.442Z,98727.13
2022-09-14T14:22:15.754Z,98727.78
2022-09-14T14:25:11.836Z,98726.19
2022-09-14T14:27:35.322Z,98721.47
2022-09-14T14:30:13.811Z,98716.94
2022-09-14T14:32:40.515Z,98724.13
2022-09-14T14:35:20.158Z,98728.41
2022-09-14T14:37:47.838Z,98720.84
2022-09-14T14:40:16.273Z,98726.38
2022-09-14T14:42:43.087Z,98729.25
2022-09-14T14:45:26.498Z,98726.31
2022-09-14T14:47:54.757Z,98737.06
2022-09-14T14:50:27.574Z,98734.13
2022-09-14T14:52:54.527Z,98727.91
2022-09-14T14:55:22.378Z,98727.22
2022-09-14T14:57:50.136Z,98725.56
2022-09-14T15:00:20.219Z,98727.44
2022-09-14T15:02:46.760Z,98721.06
2022-09-14T15:05:13.837Z,98722.75
2022-09-14T15:07:40.598Z,98722.75
2022-09-14T15:10:11.459Z,98714.69
2022-09-14T15:12:37.934Z,98717.19
2022-09-14T15:15:04.949Z,98715.34
2022-09-14T15:17:31.451Z,98710.19
2022-09-14T15:19:57.978Z,98710.97
2022-09-14T15:22:25.247Z,98710.78
2022-09-14T15:24:52.203Z,98705.25
2022-09-14T15:27:18.765Z,98703.22
2022-09-14T15:29:45.377Z,98708.38
2022-09-14T15:32:12.042Z,98706.53
2022-09-14T15:34:38.792Z,98701.16
2022-09-14T15:37:05.352Z,98697.44
2022-09-14T15:39:31.878Z,98695.78
2022-09-14T15:41:58.876Z,98694.94
2022-09-14T15:44:25.736Z,98697.84
2022-09-14T15:46:53.078Z,98689.16
2022-09-14T15:49:24.537Z,98695.75
2022-09-14T15:51:53.884Z,98695.91
2022-09-14T15:54:25.769Z,98686.38
2022-09-14T15:56:54.595Z,98684.06
2022-09-14T15:59:22.204Z,98686.31
2022-09-14T16:01:49.328Z,98689.38
2022-09-14T16:04:16.046Z,98689.97
2022-09-14T16:06:42.655Z,98685.81
2022-09-14T16:09:10.701Z,98684.31
2022-09-14T16:11:38.682Z,98689.06
2022-09-14T16:14:07.116Z,98692.97
2022-09-14T16:16:34.962Z,98690.28
2022-09-14T16:19:13.411Z,98701.38
2022-09-14T16:21:41.098Z,98696.66
2022-09-14T16:24:11.516Z,98704.03
2022-09-14T16:26:38.574Z,98695.19
2022-09-14T16:29:08.499Z,98695.38
2022-09-14T16:31:37.513Z,98690.22
2022-09-14T16:34:07.641Z,98688.56
2022-09-14T16:36:38.468Z,98695.94
2022-09-14T16:39:10.694Z,98695.13
2022-09-14T16:41:39.147Z,98701.66
2022-09-14T16:44:06.275Z,98700.19
2022-09-14T16:46:34.129Z,98696.44
2022-09-14T16:49:00.838Z,98692.50
2022-09-14T16:51:29.523Z,98690.34
2022-09-14T16:53:57.678Z,98696.28
2022-09-14T16:56:30.984Z,98690.84
2022-09-14T16:58:58.849Z,98696.94
2022-09-14T17:01:31.550Z,98697.19
2022-09-14T17:04:05.427Z,98693.81
2022-09-14T17:06:32.968Z,98693.34
2022-09-14T17:09:03.483Z,98694.25
2022-09-14T17:11:32.217Z,98688.19
2022-09-14T17:13:58.992Z,98689.09
2022-09-14T17:16:27.265Z,98699.88
2022-09-14T17:18:57.811Z,98699.31
2022-09-14T17:21:27.257Z,98698.56
2022-09-14T17:23:54.509Z,98695.16
2022-09-14T17:26:22.401Z,98690.88
2022-09-14T17:28:51.078Z,98693.59
2022-09-14T17:31:22.281Z,98700.03
2022-09-14T17:33:49.354Z,98698.06
2022-09-14T17:36:16.927Z,98694.47
2022-09-14T17:38:44.428Z,98713.22
2022-09-14T17:41:14.324Z,98702.94
2022-09-14T17:43:41.667Z,98712.88
2022-09-14T17:46:13.219Z,98707.06
2022-09-14T17:48:41.436Z,98715.34
2022-09-14T17:51:20.556Z,98714.19
2022-09-14T17:53:49.698Z,98716.56
2022-09-14T17:56:18.524Z,98717.56
2022-09-14T17:58:45.120Z,98719.28
2022-09-14T18:01:14.386Z,98728.50
2022-09-14T18:03:43.483Z,98725.69
2022-09-14T18:06:12.110Z,98728.38
2022-09-14T18:08:39.471Z,98722.03
2022-09-14T18:11:09.447Z,98735.41
2022-09-14T18:13:39.138Z,98734.22
2022-09-14T18:16:05.859Z,98741.09
2022-09-14T18:18:32.369Z,98744.25
2022-09-14T18:21:00.662Z,98743.09
2022-09-14T18:23:27.988Z,98745.25
2022-09-14T18:25:55.307Z,98744.75
2022-09-14T18:28:22.816Z,98742.41
2022-09-14T18:30:49.563Z,98752.41
2022-09-14T18:33:16.721Z,98751.91
2022-09-14T18:35:43.359Z,98747.75
2022-09-14T18:38:11.674Z,98748.91
2022-09-14T18:40:38.426Z,98752.59
2022-09-14T18:43:05.167Z,98745.91
2022-09-14T18:45:34.030Z,98742.91
2022-09-14T18:48:00.691Z,98747.72
2022-09-14T18:50:27.180Z,98750.06
2022-09-14T18:52:53.658Z,98748.88
2022-09-14T18:55:20.397Z,98749.41
2022-09-14T18:57:47.619Z,98750.72
2022-09-14T19:00:18.511Z,98744.22
2022-09-14T19:02:50.701Z,98742.88
2022-09-14T19:05:17.264Z,98740.38
2022-09-14T19:07:43.731Z,98737.03
2022-09-14T19:10:11.774Z,98742.69
2022-09-14T19:12:38.518Z,98743.00
2022-09-14T19:15:05.521Z,98747.69
2022-09-14T19:17:32.066Z,98747.00
2022-09-14T19:19:58.839Z,98755.97
2022-09-14T19:22:25.738Z,98755.13
2022-09-14T19:24:52.455Z,98757.00
2022-09-14T19:27:19.031Z,98754.31
2022-09-14T19:29:45.541Z,98753.47
2022-09-14T19:32:12.355Z,98759.66
2022-09-14T19:34:38.865Z,98752.47
2022-09-14T19:37:05.641Z,98754.97
2022-09-14T19:39:32.124Z,98753.16
2022-09-14T19:41:58.685Z,98760.16
2022-09-14T19:44:25.153Z,98753.81
2022-09-14T19:46:52.293Z,98759.00
2022-09-14T19:49:24.357Z,98762.66
2022-09-14T19:51:51.679Z,98759.00
2022-09-14T19:54:18.532Z,98759.00
2022-09-14T19:56:46.622Z,98767.97
2022-09-14T19:59:13.715Z,98766.31
2022-09-14T20:01:41.387Z,98764.63
2022-09-14T20:04:09.087Z,98765.63
2022-09-14T20:06:40.327Z,98768.63
2022-09-14T20:09:10.560Z,98771.47
2022-09-14T20:11:38.697Z,98768.97
2022-09-14T20:14:07.768Z,98774.28
2022-09-14T20:16:39.563Z,98769.28
2022-09-14T20:19:09.344Z,98773.75
2022-09-14T20:21:37.463Z,98767.63
2022-09-14T20:24:21.323Z,98767.09
2022-09-14T20:26:50.029Z,98768.94
2022-09-14T20:29:18.276Z,98770.91
2022-09-14T20:31:45.157Z,98767.56
2022-09-14T20:34:12.808Z,98771.22
2022-09-14T20:36:39.830Z,98771.38
2022-09-14T20:39:06.312Z,98773.34
2022-09-14T20:41:34.871Z,98772.53
2022-09-14T20:44:02.169Z,98782.34
2022-09-14T20:46:31.866Z,98783.34
2022-09-14T20:48:58.603Z,98779.00
2022-09-14T20:51:25.569Z,98786.00
2022-09-14T20:53:52.154Z,98784.34
2022-09-14T20:56:24.559Z,98784.66
2022-09-14T20:58:55.115Z,98783.66
2022-09-14T21:01:23.576Z,98784.50
2022-09-14T21:03:50.674Z,98792.47
2022-09-14T21:06:22.467Z,98787.31
2022-09-14T21:08:49.241Z,98786.31
2022-09-14T21:11:21.858Z,98792.78
2022-09-14T21:13:49.650Z,98786.47
2022-09-14T21:16:19.404Z,98784.97
2022-09-14T21:18:47.859Z,98792.13
2022-09-14T21:21:19.587Z,98783.59
2022-09-14T21:23:48.361Z,98788.94
2022-09-14T21:26:15.376Z,98786.41
2022-09-14T21:28:42.235Z,98796.56
2022-09-14T21:31:10.298Z,98799.53
2022-09-14T21:33:38.963Z,98804.34
2022-09-14T21:36:21.200Z,98800.63
2022-09-14T21:38:54.468Z,98804.31
2022-09-14T21:41:23.114Z,98812.97
2022-09-14T21:43:49.734Z,98802.47
2022-09-14T21:46:17.439Z,98816.59
2022-09-14T21:48:44.531Z,98814.63
2022-09-14T21:51:25.742Z,98811.28
2022-09-14T21:53:54.851Z,98804.66
2022-09-14T21:56:23.560Z,98814.31
2022-09-14T21:58:52.312Z,98806.00
2022-09-14T22:01:19.289Z,98807.69
2022-09-14T22:03:45.837Z,98810.19
2022-09-14T22:06:13.705Z,98810.03
2022-09-14T22:08:40.380Z,98815.34
2022-09-14T22:11:08.212Z,98814.53
2022-09-14T22:13:35.091Z,98809.22
2022-09-14T22:16:16.560Z,98815.00
2022-09-14T22:18:49.235Z,98817.50
2022-09-14T22:21:16.741Z,98822.69
2022-09-14T22:23:43.796Z,98808.53
2022-09-14T22:26:12.056Z,98820.81
2022-09-14T22:28:40.799Z,98814.53
2022-09-14T22:31:08.693Z,98817.19
2022-09-14T22:33:35.952Z,98812.53
2022-09-14T22:36:03.761Z,98810.72
2022-09-14T22:38:34.227Z,98809.22
2022-09-14T22:41:04.373Z,98808.38
2022-09-14T22:43:32.088Z,98811.69
2022-09-14T22:45:58.789Z,98809.22
2022-09-14T22:48:26.373Z,98808.38
2022-09-14T22:50:56.398Z,98808.69
2022-09-14T22:53:23.900Z,98808.69
2022-09-14T22:55:51.494Z,98802.00
2022-09-14T22:58:20.927Z,98800.63
2022-09-14T23:00:48.286Z,98803.44
2022-09-14T23:03:16.227Z,98803.78
2022-09-14T23:05:59.006Z,98800.22
2022-09-14T23:08:27.244Z,98807.22
2022-09-14T23:10:55.073Z,98806.03
2022-09-14T23:13:21.925Z,98809.00
2022-09-14T23:15:48.407Z,98812.97
2022-09-14T23:18:14.988Z,98802.97
2022-09-14T23:20:44.731Z,98806.06
2022-09-14T23:23:12.027Z,98809.72
2022-09-14T23:25:40.689Z,98804.03
2022-09-14T23:28:11.038Z,98802.69
2022-09-14T23:30:38.659Z,98807.31
2022-09-14T23:33:05.252Z,98804.28
2022-09-14T23:35:34.691Z,98804.72
2022-09-14T23:38:04.070Z,98807.53
2022-09-14T23:40:30.603Z,98805.19
2022-09-14T23:42:57.173Z,98809.13
2022-09-14T23:45:23.664Z,98813.75
2022-09-14T23:47:50.182Z,98810.56
2022-09-14T23:50:16.950Z,98796.75
2022-09-14T23:52:43.821Z,98808.53
2022-09-14T23:55:10.815Z,98814.97
2022-09-14T23:57:37.986Z,98812.63
